createdAt,value
2022-10-18T00:02:20.408Z,101985.59
2022-10-18T00:17:22.451Z,101990.31
2022-10-18T00:32:25.354Z,101979.06
2022-10-18T00:47:27.428Z,101954.50
2022-10-18T01:02:29.708Z,101949.44
2022-10-18T01:17:48.950Z,101964.25
2022-10-18T01:33:09.621Z,101957.63
2022-10-18T01:48:13.148Z,101946.75
2022-10-18T02:03:26.464Z,101942.41
2022-10-18T02:18:35.677Z,101939.69
2022-10-18T02:33:53.726Z,101935.44
2022-10-18T02:48:55.553Z,101924.50
2022-10-18T03:03:58.115Z,101907.00
2022-10-18T03:19:00.111Z,101904.66
2022-10-18T03:34:01.976Z,101914.38
2022-10-18T03:49:03.864Z,101903.88
2022-10-18T04:04:05.729Z,101891.03
2022-10-18T04:19:07.646Z,101899.59
2022-10-18T04:34:10.594Z,101896.88
2022-10-18T04:49:12.486Z,101901.94
2022-10-18T05:04:14.424Z,101902.72
2022-10-18T05:19:16.506Z,101903.97
2022-10-18T05:34:22.297Z,101907.41
2022-10-18T05:49:24.325Z,101911.03
2022-10-18T06:04:26.209Z,101922.94
2022-10-18T06:19:28.143Z,101935.34
2022-10-18T06:34:32.622Z,101930.66
2022-10-18T06:49:34.468Z,101932.69
2022-10-18T07:04:36.421Z,101914.38
2022-10-18T07:19:38.336Z,101912.09
2022-10-18T07:34:40.214Z,101897.94
2022-10-18T07:49:42.092Z,101883.19
2022-10-18T08:04:43.935Z,101879.31
2022-10-18T08:19:58.311Z,101868.69
2022-10-18T08:35:09.364Z,101858.38
2022-10-18T08:50:18.787Z,101829.91
2022-10-18T09:05:36.665Z,101824.47
2022-10-18T09:21:17.836Z,101802.91
2022-10-18T09:36:24.516Z,101769.50
2022-10-18T09:51:37.564Z,101747.28
2022-10-18T10:06:55.788Z,101717.38
2022-10-18T10:22:10.869Z,101698.06
2022-10-18T10:37:30.135Z,101687.44
2022-10-18T10:52:32.300Z,101680.59
2022-10-18T11:07:39.717Z,101653.34
2022-10-18T11:22:57.113Z,101634.78
2022-10-18T11:38:18.968Z,101609.47
2022-10-18T11:53:31.926Z,101593.69
2022-10-18T12:08:50.994Z,101551.50
2022-10-18T12:24:00.218Z,101535.91
2022-10-18T13:20:40.954Z,101489.06
2022-10-18T13:36:01.819Z,101472.63
2022-10-18T13:51:36.079Z,101452.16
2022-10-18T14:06:43.843Z,101432.34
2022-10-18T14:21:57.006Z,101412.97
2022-10-18T14:36:58.956Z,101392.66
2022-10-18T14:52:01.217Z,101378.66
2022-10-18T15:07:13.450Z,101351.91
2022-10-18T15:22:32.183Z,101341.13
2022-10-18T15:37:44.444Z,101345.38
2022-10-18T15:52:46.321Z,101331.25
2022-10-18T16:29:50.852Z,101306.84
2022-10-18T16:44:55.159Z,101296.41
2022-10-18T16:59:57.493Z,101289.69
2022-10-18T17:14:59.472Z,101268.16
2022-10-18T17:30:01.331Z,101259.31
2022-10-18T17:45:03.384Z,101237.22
2022-10-18T18:00:08.153Z,101206.00
2022-10-18T18:15:10.169Z,101192.72
2022-10-18T18:30:12.259Z,101178.19
2022-10-18T18:45:14.232Z,101162.63
2022-10-18T19:00:16.156Z,101145.25
2022-10-18T19:15:18.788Z,101124.81
2022-10-18T19:30:20.673Z,101108.84
2022-10-18T19:45:22.564Z,101093.91
2022-10-18T20:00:24.472Z,101068.66
2022-10-18T20:15:26.415Z,101050.34
2022-10-18T20:30:28.246Z,101011.13
2022-10-18T20:45:30.132Z,100986.78
2022-10-18T21:00:32.341Z,100964.56
2022-10-18T21:15:34.280Z,100945.53
2022-10-18T21:30:36.110Z,100923.47
2022-10-18T21:45:38.205Z,100907.91
2022-10-18T22:00:40.367Z,100879.22
2022-10-18T22:15:42.208Z,100860.50
2022-10-18T22:30:44.077Z,100832.13
2022-10-18T22:45:45.980Z,100812.44
2022-10-18T23:24:49.458Z,100770.59
2022-10-18T23:39:51.325Z,100754.34
2022-10-18T23:54:53.257Z,100737.91
